createdAt,value
2023-03-28T00:01:40.696Z,2.22
2023-03-28T00:04:11.653Z,2.13
2023-03-28T00:06:41.715Z,3.35
2023-03-28T00:09:09.652Z,2.00
2023-03-28T00:11:38.366Z,3.38
2023-03-28T00:14:08.486Z,4.20
2023-03-28T00:16:39.451Z,10.07
2023-03-28T00:19:09.876Z,2.85
2023-03-28T00:21:41.500Z,2.92
2023-03-28T00:24:14.107Z,2.60
2023-03-28T00:26:43.495Z,3.35
2023-03-28T00:29:21.304Z,1.90
2023-03-28T00:31:50.856Z,3.03
2023-03-28T00:34:18.741Z,2.38
2023-03-28T00:36:46.989Z,2.70
2023-03-28T00:39:15.455Z,6.43
2023-03-28T00:41:45.162Z,3.20
2023-03-28T00:44:47.384Z,4.13
2023-03-28T00:47:36.850Z,3.10
2023-03-28T00:50:22.752Z,4.10
2023-03-28T00:53:01.914Z,8.10
2023-03-28T00:55:35.842Z,2.95
2023-03-28T00:58:08.742Z,3.53
2023-03-28T01:00:41.439Z,3.75
2023-03-28T01:03:13.732Z,2.73
2023-03-28T01:05:43.788Z,7.77
2023-03-28T01:08:21.223Z,4.95
2023-03-28T01:10:49.610Z,1.80
2023-03-28T01:13:20.635Z,2.85
2023-03-28T01:15:50.463Z,5.53
2023-03-28T01:18:24.036Z,3.88
2023-03-28T01:21:34.401Z,2.38
2023-03-28T01:24:26.487Z,3.10
2023-03-28T01:26:59.678Z,3.65
2023-03-28T01:29:30.532Z,4.35
2023-03-28T01:32:24.179Z,1.27
2023-03-28T01:35:26.737Z,1.88
2023-03-28T01:38:23.841Z,3.30
2023-03-28T01:40:57.291Z,1.95
2023-03-28T01:46:19.616Z,3.78
2023-03-28T01:48:54.031Z,3.47
2023-03-28T01:51:37.745Z,3.45
2023-03-28T01:56:59.601Z,2.28
2023-03-28T01:59:43.711Z,3.45
2023-03-28T02:02:39.548Z,2.88
2023-03-28T02:05:28.158Z,3.88
2023-03-28T02:08:16.742Z,2.40
2023-03-28T02:10:52.733Z,3.70
2023-03-28T02:14:17.440Z,4.38
2023-03-28T02:17:21.645Z,2.13
2023-03-28T02:20:15.193Z,2.40
2023-03-28T02:23:18.734Z,2.55
2023-03-28T02:26:02.579Z,2.88
2023-03-28T02:28:53.200Z,4.43
2023-03-28T02:31:51.464Z,3.25
2023-03-28T02:34:20.210Z,2.15
2023-03-28T02:37:03.887Z,2.88
2023-03-28T02:39:46.764Z,3.15
2023-03-28T02:42:52.776Z,1.55
2023-03-28T02:45:29.591Z,3.92
2023-03-28T02:47:57.744Z,1.67
2023-03-28T02:50:43.711Z,3.92
2023-03-28T02:53:33.029Z,2.83
2023-03-28T02:56:32.557Z,2.83
2023-03-28T02:59:31.618Z,2.75
2023-03-28T03:02:00.995Z,3.85
2023-03-28T03:04:28.686Z,3.58
2023-03-28T03:06:56.983Z,1.13
2023-03-28T03:09:27.540Z,2.83
2023-03-28T03:11:55.594Z,2.67
2023-03-28T03:14:23.704Z,3.17
2023-03-28T03:16:54.381Z,4.75
2023-03-28T03:19:21.981Z,5.20
2023-03-28T03:21:50.489Z,3.13
2023-03-28T03:24:18.669Z,2.28
2023-03-28T03:26:46.744Z,4.55
2023-03-28T03:29:17.827Z,3.75
2023-03-28T03:31:46.643Z,3.60
2023-03-28T03:34:33.998Z,7.03
2023-03-28T03:37:04.325Z,2.42
2023-03-28T03:39:31.984Z,4.43
2023-03-28T03:41:59.631Z,3.35
2023-03-28T03:44:27.713Z,4.18
2023-03-28T03:46:56.578Z,2.53
2023-03-28T03:49:24.833Z,3.40
2023-03-28T03:51:53.469Z,2.20
2023-03-28T03:54:21.632Z,2.47
2023-03-28T03:56:50.151Z,5.25
2023-03-28T03:59:18.827Z,2.85
2023-03-28T04:01:47.707Z,2.47
2023-03-28T04:04:28.352Z,3.00
2023-03-28T04:07:15.451Z,5.32
2023-03-28T04:09:44.106Z,2.65
2023-03-28T04:12:12.234Z,2.30
2023-03-28T04:14:47.941Z,7.07
2023-03-28T04:17:44.291Z,2.15
2023-03-28T04:20:19.655Z,6.57
2023-03-28T04:23:05.832Z,2.90
2023-03-28T04:25:34.979Z,3.88
2023-03-28T04:28:27.881Z,8.00
2023-03-28T04:31:00.272Z,6.07
2023-03-28T04:34:00.672Z,7.25
2023-03-28T04:36:29.903Z,3.55
2023-03-28T04:39:03.045Z,4.07
2023-03-28T04:41:55.749Z,6.50
2023-03-28T04:44:55.969Z,6.72
2023-03-28T04:47:24.045Z,7.13
2023-03-28T04:49:52.744Z,5.72
2023-03-28T04:52:22.193Z,4.40
2023-03-28T04:54:51.547Z,8.65
2023-03-28T04:57:23.156Z,7.90
2023-03-28T04:59:56.101Z,11.18
2023-03-28T05:02:55.176Z,7.93
2023-03-28T05:05:24.247Z,6.53
2023-03-28T05:07:52.387Z,4.60
2023-03-28T05:10:21.887Z,6.30
2023-03-28T05:12:51.469Z,8.10
2023-03-28T05:15:21.338Z,10.00
2023-03-28T05:18:03.223Z,11.30
2023-03-28T05:20:33.507Z,11.02
2023-03-28T05:23:02.188Z,3.95
2023-03-28T05:25:31.589Z,4.80
2023-03-28T05:27:59.968Z,7.70
2023-03-28T05:30:28.070Z,5.78
2023-03-28T05:32:58.673Z,13.05
2023-03-28T05:35:26.634Z,4.32
2023-03-28T05:37:54.854Z,5.60
2023-03-28T05:40:23.380Z,5.10
2023-03-28T05:42:51.551Z,4.30
2023-03-28T05:45:21.921Z,7.60
2023-03-28T05:48:00.276Z,4.75
2023-03-28T05:50:29.019Z,8.88
2023-03-28T05:53:07.068Z,9.77
2023-03-28T05:55:36.007Z,11.80
2023-03-28T05:58:06.387Z,7.75
2023-03-28T06:00:39.721Z,7.15
2023-03-28T06:03:08.426Z,13.52
2023-03-28T06:05:39.671Z,5.45
2023-03-28T06:08:19.438Z,15.15
2023-03-28T06:10:47.154Z,13.45
2023-03-28T06:13:20.730Z,13.88
2023-03-28T06:15:50.056Z,13.48
2023-03-28T06:18:20.363Z,14.27
2023-03-28T06:20:50.747Z,11.18
2023-03-28T06:23:18.710Z,20.17
2023-03-28T06:25:46.570Z,17.77
2023-03-28T06:28:16.823Z,12.98
2023-03-28T06:31:14.470Z,8.07
2023-03-28T06:33:43.738Z,13.80
2023-03-28T06:36:12.141Z,11.50
2023-03-28T06:38:39.999Z,9.70
2023-03-28T06:41:09.450Z,17.73
2023-03-28T06:43:37.897Z,10.93
2023-03-28T06:46:10.312Z,18.92
2023-03-28T06:48:43.976Z,14.77
2023-03-28T06:51:31.191Z,9.98
2023-03-28T06:53:59.241Z,7.72
2023-03-28T06:56:30.060Z,14.75
2023-03-28T06:58:59.415Z,10.48
2023-03-28T07:01:29.277Z,10.52
2023-03-28T07:04:05.004Z,12.23
2023-03-28T07:06:36.185Z,14.73
2023-03-28T07:09:06.437Z,21.90
2023-03-28T07:11:41.560Z,12.77
2023-03-28T07:14:09.565Z,13.32
2023-03-28T07:16:37.368Z,9.80
2023-03-28T07:19:05.462Z,6.65
2023-03-28T07:21:36.645Z,10.48
2023-03-28T07:24:06.164Z,13.68
2023-03-28T07:26:46.406Z,6.78
2023-03-28T07:29:14.393Z,5.43
2023-03-28T07:31:42.809Z,9.43
2023-03-28T07:34:11.307Z,13.68
2023-03-28T07:36:39.805Z,9.95
2023-03-28T07:39:16.009Z,8.38
2023-03-28T07:41:44.566Z,13.35
2023-03-28T07:44:13.220Z,10.52
2023-03-28T07:46:40.964Z,10.80
2023-03-28T07:49:08.615Z,12.98
2023-03-28T07:51:37.567Z,9.77
2023-03-28T07:54:05.689Z,5.85
2023-03-28T07:56:33.778Z,8.38
2023-03-28T07:59:18.417Z,6.68
2023-03-28T08:01:49.655Z,12.02
2023-03-28T08:04:19.569Z,6.90
2023-03-28T08:07:00.398Z,16.85
2023-03-28T08:09:28.621Z,11.05
2023-03-28T08:12:09.056Z,10.98
2023-03-28T08:14:36.643Z,6.25
2023-03-28T08:17:04.578Z,10.35
2023-03-28T08:19:32.694Z,6.20
2023-03-28T08:22:26.144Z,6.75
2023-03-28T08:25:12.612Z,5.90
2023-03-28T08:27:40.990Z,6.60
2023-03-28T08:30:12.834Z,6.20
2023-03-28T08:32:55.613Z,15.38
2023-03-28T08:35:24.276Z,7.30
2023-03-28T08:37:56.568Z,7.57
2023-03-28T08:40:27.373Z,10.65
2023-03-28T08:43:22.994Z,8.23
2023-03-28T08:45:57.890Z,15.98
2023-03-28T08:48:40.041Z,8.63
2023-03-28T08:51:35.461Z,11.02
2023-03-28T08:54:17.440Z,8.77
2023-03-28T08:56:52.401Z,8.55
2023-03-28T08:59:30.076Z,8.57
2023-03-28T09:01:58.182Z,4.43
2023-03-28T09:04:35.304Z,4.50
2023-03-28T09:07:40.765Z,13.88
2023-03-28T09:10:18.718Z,7.97
2023-03-28T09:13:32.275Z,8.88
2023-03-28T09:16:09.482Z,6.45
2023-03-28T09:18:55.005Z,3.42
2023-03-28T09:21:41.968Z,6.72
2023-03-28T09:24:38.246Z,5.45
2023-03-28T09:27:49.911Z,5.85
2023-03-28T09:30:25.325Z,8.95
2023-03-28T09:32:58.881Z,3.28
2023-03-28T09:35:31.560Z,2.80
2023-03-28T09:38:10.045Z,5.97
2023-03-28T09:40:42.711Z,3.22
2023-03-28T09:43:40.820Z,3.13
2023-03-28T09:46:40.044Z,3.92
2023-03-28T09:49:27.603Z,3.55
2023-03-28T09:52:15.967Z,7.20
2023-03-28T09:54:43.667Z,2.42
2023-03-28T09:57:11.991Z,1.80
2023-03-28T09:59:58.171Z,3.13
2023-03-28T10:02:33.911Z,3.03
2023-03-28T10:05:40.836Z,3.58
2023-03-28T10:08:34.936Z,5.35
2023-03-28T10:11:49.929Z,5.90
2023-03-28T10:17:33.613Z,2.97
2023-03-28T10:20:21.887Z,3.58
2023-03-28T10:22:56.071Z,4.25
2023-03-28T10:25:40.234Z,5.45
2023-03-28T10:28:15.402Z,4.10
2023-03-28T10:30:44.599Z,4.35
2023-03-28T10:33:21.301Z,3.40
2023-03-28T10:36:29.068Z,4.22
2023-03-28T10:38:59.233Z,2.55
2023-03-28T10:41:55.342Z,4.45
2023-03-28T10:45:02.862Z,4.88
2023-03-28T10:47:35.198Z,5.10
2023-03-28T10:50:22.881Z,2.83
2023-03-28T10:53:10.862Z,5.85
2023-03-28T10:56:04.136Z,4.45
2023-03-28T10:59:12.911Z,5.20
2023-03-28T11:01:52.201Z,2.90
2023-03-28T11:04:54.852Z,2.25
2023-03-28T11:08:06.291Z,2.30
2023-03-28T11:11:07.452Z,1.58
2023-03-28T11:14:11.906Z,2.33
2023-03-28T11:17:01.552Z,2.42
2023-03-28T11:20:17.341Z,1.20
2023-03-28T11:23:05.717Z,1.27
2023-03-28T11:25:44.501Z,2.50
2023-03-28T11:28:39.754Z,1.60
2023-03-28T11:31:24.871Z,1.00
2023-03-28T11:34:24.658Z,2.60
2023-03-28T11:37:00.484Z,1.40
2023-03-28T11:39:53.830Z,2.03
2023-03-28T11:42:38.135Z,0.85
2023-03-28T11:45:42.518Z,3.05
2023-03-28T11:48:36.261Z,2.22
2023-03-28T11:51:26.192Z,2.65
2023-03-28T11:54:13.853Z,2.60
2023-03-28T11:57:11.803Z,2.85
2023-03-28T12:00:00.795Z,1.52
2023-03-28T12:02:42.787Z,2.95
2023-03-28T12:05:33.094Z,3.17
2023-03-28T12:08:09.283Z,2.42
2023-03-28T12:10:42.845Z,3.88
2023-03-28T12:13:23.067Z,1.58
2023-03-28T12:16:09.100Z,1.52
2023-03-28T12:19:17.653Z,3.90
2023-03-28T12:22:00.999Z,4.13
2023-03-28T12:24:49.709Z,1.60
2023-03-28T12:27:42.195Z,1.38
2023-03-28T12:30:35.807Z,2.25
2023-03-28T12:33:37.501Z,1.38
2023-03-28T12:36:17.812Z,3.33
2023-03-28T12:38:55.594Z,2.90
2023-03-28T12:41:34.601Z,1.50
2023-03-28T12:44:27.394Z,1.48
2023-03-28T12:47:14.259Z,2.42
2023-03-28T12:49:49.128Z,1.80
2023-03-28T12:52:25.879Z,5.32
2023-03-28T12:55:02.459Z,2.05
2023-03-28T12:57:42.712Z,3.17
2023-03-28T13:01:08.773Z,2.08
2023-03-28T13:04:03.224Z,3.20
2023-03-28T13:07:11.135Z,2.22
2023-03-28T13:09:57.514Z,2.15
2023-03-28T13:12:51.897Z,3.42
2023-03-28T13:15:19.477Z,2.67
2023-03-28T13:17:49.157Z,2.22
2023-03-28T13:20:17.578Z,2.60
2023-03-28T13:22:57.434Z,2.88
2023-03-28T13:25:28.134Z,4.97
2023-03-28T13:28:00.647Z,1.50
2023-03-28T13:30:31.465Z,1.40
2023-03-28T13:33:26.126Z,3.00
2023-03-28T13:36:00.330Z,4.15
2023-03-28T13:38:28.608Z,1.77
2023-03-28T13:41:01.287Z,3.42
2023-03-28T13:43:36.099Z,2.00
2023-03-28T13:46:11.931Z,2.90
2023-03-28T13:49:03.833Z,6.07
2023-03-28T13:51:40.854Z,5.85
2023-03-28T13:54:11.272Z,5.32
2023-03-28T13:56:43.505Z,2.80
2023-03-28T13:59:23.489Z,1.42
2023-03-28T14:02:02.460Z,1.58
2023-03-28T14:04:33.538Z,1.75
2023-03-28T14:07:02.538Z,6.18
2023-03-28T14:09:35.038Z,3.75
2023-03-28T14:12:06.985Z,1.25
2023-03-28T14:14:47.582Z,3.28
2023-03-28T14:17:19.007Z,3.58
2023-03-28T14:19:51.134Z,3.25
2023-03-28T14:22:21.937Z,2.33
2023-03-28T14:24:52.610Z,4.00
2023-03-28T14:27:49.810Z,2.13
2023-03-28T14:30:29.546Z,2.08
2023-03-28T14:33:14.888Z,5.72
2023-03-28T14:35:43.418Z,3.25
2023-03-28T14:38:27.702Z,7.03
2023-03-28T14:41:04.959Z,5.78
2023-03-28T14:43:33.456Z,3.67
2023-03-28T14:46:04.747Z,7.35
2023-03-28T14:48:34.610Z,3.08
2023-03-28T14:51:04.107Z,4.07
2023-03-28T14:53:40.612Z,3.95
2023-03-28T14:56:12.863Z,2.65
2023-03-28T14:58:44.609Z,4.93
2023-03-28T15:01:22.875Z,4.03
2023-03-28T15:03:56.772Z,3.90
2023-03-28T15:06:24.660Z,2.75
2023-03-28T15:08:54.567Z,1.38
2023-03-28T15:11:29.349Z,1.77
2023-03-28T15:14:28.253Z,2.45
2023-03-28T15:16:57.026Z,4.35
2023-03-28T15:19:34.973Z,2.75
2023-03-28T15:22:09.383Z,2.35
2023-03-28T15:24:39.279Z,2.05
2023-03-28T15:27:08.584Z,2.00
2023-03-28T15:29:38.743Z,4.43
2023-03-28T15:32:15.960Z,1.90
2023-03-28T15:34:54.538Z,3.55
2023-03-28T15:37:25.890Z,4.45
2023-03-28T15:39:56.228Z,2.25
2023-03-28T15:42:34.253Z,2.95
2023-03-28T15:45:03.031Z,2.92
2023-03-28T15:47:35.641Z,1.70
2023-03-28T15:50:12.649Z,2.22
2023-03-28T15:52:43.853Z,3.17
2023-03-28T15:55:21.241Z,2.47
2023-03-28T15:57:49.474Z,3.65
2023-03-28T16:00:38.342Z,2.47
2023-03-28T16:03:21.460Z,2.13
2023-03-28T16:05:51.666Z,3.42
2023-03-28T16:08:34.803Z,3.35
2023-03-28T16:11:05.900Z,4.50
2023-03-28T16:13:37.400Z,2.53
2023-03-28T16:16:29.412Z,3.60
2023-03-28T16:19:22.984Z,3.38
2023-03-28T16:21:51.278Z,2.53
2023-03-28T16:24:22.453Z,4.68
2023-03-28T16:26:50.148Z,2.65
2023-03-28T16:29:18.170Z,2.15
2023-03-28T16:31:47.176Z,3.78
2023-03-28T16:34:14.926Z,4.03
2023-03-28T16:36:42.574Z,9.30
2023-03-28T16:39:11.265Z,2.65
2023-03-28T16:41:39.422Z,10.38
2023-03-28T16:44:07.096Z,12.18
2023-03-28T16:46:35.227Z,8.05
2023-03-28T16:49:04.267Z,5.60
2023-03-28T16:51:32.339Z,9.52
2023-03-28T16:53:59.947Z,5.60
2023-03-28T16:56:30.225Z,10.95
2023-03-28T16:58:57.823Z,6.75
2023-03-28T17:01:25.643Z,2.58
2023-03-28T17:03:55.717Z,2.40
2023-03-28T17:06:24.419Z,3.20
2023-03-28T17:08:53.394Z,3.85
2023-03-28T17:11:23.424Z,8.32
2023-03-28T17:13:55.470Z,10.32
2023-03-28T17:16:23.800Z,8.13
2023-03-28T17:18:51.959Z,6.70
2023-03-28T17:21:20.240Z,4.85
2023-03-28T17:23:51.101Z,4.90
2023-03-28T17:26:19.490Z,6.22
2023-03-28T17:28:47.426Z,5.65
2023-03-28T17:31:18.689Z,4.80
2023-03-28T17:33:47.959Z,7.15
2023-03-28T17:36:19.681Z,8.00
2023-03-28T17:38:50.963Z,18.65
2023-03-28T17:41:19.754Z,11.43
2023-03-28T17:43:47.498Z,6.90
2023-03-28T17:46:17.208Z,10.07
2023-03-28T17:48:45.145Z,5.20
2023-03-28T17:51:13.910Z,8.45
2023-03-28T17:53:44.632Z,9.82
2023-03-28T17:56:13.444Z,5.03
2023-03-28T17:58:42.204Z,4.95
2023-03-28T18:01:12.657Z,4.95
2023-03-28T18:03:41.707Z,3.97
2023-03-28T18:06:17.602Z,7.43
2023-03-28T18:08:46.379Z,5.30
2023-03-28T18:11:17.778Z,6.20
2023-03-28T18:13:45.762Z,5.57
2023-03-28T18:16:18.148Z,9.23
2023-03-28T18:18:46.922Z,4.15
2023-03-28T18:21:15.266Z,6.68
2023-03-28T18:23:43.619Z,5.63
2023-03-28T18:26:12.203Z,4.93
2023-03-28T18:28:40.544Z,7.63
2023-03-28T18:31:14.568Z,7.25
2023-03-28T18:33:43.604Z,9.00
2023-03-28T18:36:13.102Z,7.30
2023-03-28T18:38:43.980Z,8.00
2023-03-28T18:41:12.835Z,8.05
2023-03-28T18:43:42.874Z,8.30
2023-03-28T18:46:16.139Z,6.65
2023-03-28T18:48:44.970Z,7.65
2023-03-28T18:51:13.983Z,6.22
2023-03-28T18:53:43.638Z,8.18
2023-03-28T18:56:13.832Z,6.68
2023-03-28T18:58:41.706Z,9.32
2023-03-28T19:01:11.641Z,12.85
2023-03-28T19:03:43.590Z,21.17
2023-03-28T19:06:13.659Z,10.10
2023-03-28T19:08:42.540Z,6.65
2023-03-28T19:11:14.674Z,13.00
2023-03-28T19:13:44.472Z,7.45
2023-03-28T19:16:15.760Z,11.48
2023-03-28T19:18:46.952Z,10.57
2023-03-28T19:21:16.929Z,9.98
2023-03-28T19:23:47.604Z,11.43
2023-03-28T19:26:17.252Z,9.07
2023-03-28T19:28:45.892Z,12.68
2023-03-28T19:31:14.499Z,7.60
2023-03-28T19:33:44.353Z,8.95
2023-03-28T19:36:13.649Z,13.65
2023-03-28T19:38:42.714Z,16.42
2023-03-28T19:41:27.059Z,20.67
2023-03-28T19:43:56.216Z,11.00
2023-03-28T19:46:35.238Z,13.68
2023-03-28T19:49:07.089Z,12.15
2023-03-28T19:51:35.572Z,10.27
2023-03-28T19:54:04.732Z,12.40
2023-03-28T19:56:32.602Z,17.27
2023-03-28T19:59:00.635Z,14.27
2023-03-28T20:01:28.544Z,10.20
2023-03-28T20:03:57.011Z,11.35
2023-03-28T20:06:25.769Z,11.95
2023-03-28T20:08:54.293Z,10.75
2023-03-28T20:11:22.592Z,15.02
2023-03-28T20:13:50.853Z,20.98
2023-03-28T20:16:19.619Z,19.05
2023-03-28T20:18:48.419Z,19.10
2023-03-28T20:21:16.115Z,17.65
2023-03-28T20:23:44.337Z,12.60
2023-03-28T20:26:20.478Z,19.40
2023-03-28T20:28:50.459Z,20.83
2023-03-28T20:31:19.679Z,19.92
2023-03-28T20:33:47.596Z,19.00
2023-03-28T20:36:15.174Z,11.10
2023-03-28T20:38:43.744Z,17.95
2023-03-28T20:41:13.573Z,9.63
2023-03-28T20:43:46.976Z,12.73
2023-03-28T20:48:52.385Z,14.35
2023-03-28T20:51:23.085Z,22.15
2023-03-28T20:53:58.524Z,14.45
2023-03-28T20:56:27.815Z,11.80
2023-03-28T20:58:58.198Z,9.55
2023-03-28T21:01:29.907Z,12.80
2023-03-28T21:04:04.576Z,16.77
2023-03-28T21:06:36.647Z,11.32
2023-03-28T21:09:06.920Z,11.40
2023-03-28T21:11:36.892Z,10.98
2023-03-28T21:14:07.136Z,10.13
2023-03-28T21:16:37.356Z,10.25
2023-03-28T21:19:05.620Z,12.23
2023-03-28T21:21:34.349Z,12.10
2023-03-28T21:24:04.753Z,11.35
2023-03-28T21:26:33.413Z,8.50
2023-03-28T21:29:01.656Z,10.05
2023-03-28T21:31:29.962Z,15.25
2023-03-28T21:33:59.628Z,9.07
2023-03-28T21:36:27.980Z,9.85
2023-03-28T21:38:56.737Z,10.90
2023-03-28T21:41:27.431Z,13.30
2023-03-28T21:43:55.722Z,14.45
2023-03-28T21:46:23.459Z,11.88
2023-03-28T21:48:51.159Z,9.95
2023-03-28T21:51:19.078Z,16.73
2023-03-28T21:53:47.153Z,10.77
2023-03-28T21:56:16.422Z,9.40
2023-03-28T21:58:45.436Z,9.77
2023-03-28T22:01:14.993Z,8.18
2023-03-28T22:03:42.809Z,9.23
2023-03-28T22:06:11.576Z,11.68
2023-03-28T22:08:40.977Z,7.18
2023-03-28T22:11:18.735Z,9.45
2023-03-28T22:13:50.276Z,9.57
2023-03-28T22:16:18.966Z,14.63
2023-03-28T22:18:49.956Z,12.27
2023-03-28T22:21:17.978Z,11.90
2023-03-28T22:23:47.875Z,13.93
2023-03-28T22:26:16.803Z,12.82
2023-03-28T22:28:46.137Z,8.73
2023-03-28T22:31:14.046Z,8.98
2023-03-28T22:33:42.368Z,8.63
2023-03-28T22:36:10.896Z,18.58
2023-03-28T22:38:38.589Z,9.38
2023-03-28T22:41:07.817Z,9.25
2023-03-28T22:43:37.538Z,5.85
2023-03-28T22:46:06.189Z,8.98
2023-03-28T22:48:34.127Z,6.72
2023-03-28T22:51:02.349Z,16.08
2023-03-28T22:53:30.182Z,5.65
2023-03-28T22:55:58.869Z,8.32
2023-03-28T22:58:27.354Z,6.05
2023-03-28T23:00:56.115Z,9.10
2023-03-28T23:03:24.567Z,8.65
2023-03-28T23:05:55.135Z,9.30
2023-03-28T23:08:23.540Z,10.45
2023-03-28T23:10:51.751Z,7.20
2023-03-28T23:13:19.817Z,8.43
2023-03-28T23:15:47.347Z,9.10
2023-03-28T23:18:16.412Z,9.57
2023-03-28T23:20:49.795Z,11.35
2023-03-28T23:23:18.856Z,10.35
2023-03-28T23:25:47.455Z,12.90
2023-03-28T23:28:16.858Z,12.95
2023-03-28T23:30:46.639Z,13.95
2023-03-28T23:33:14.897Z,9.00
2023-03-28T23:35:43.466Z,11.10
2023-03-28T23:38:14.111Z,9.77
2023-03-28T23:40:41.677Z,9.88
2023-03-28T23:43:09.656Z,7.95
2023-03-28T23:45:37.943Z,10.32
2023-03-28T23:48:07.346Z,8.02
2023-03-28T23:50:35.475Z,16.20
2023-03-28T23:53:03.662Z,13.50
2023-03-28T23:55:32.365Z,8.90
2023-03-28T23:58:03.309Z,11.32
